Time;durP1;ratioP1;P1;durP2;ratioP2;P2;SDS_P1;SDS_P2;PMS_P1;PMS_P2;Temp;Humidity;BMP_temperature;BMP_pressure;BME280_temperature;BME280_humidity;BME280_pressure;Samples;Min_cycle;Max_cycle;Signal;HPM_P1;HPM_P2
2022/10/07 00:00:57;;;;;;;;;;;10.60;99.90;;;;;;5032753;28;19936;-50
2022/10/07 00:03:25;;;;;;;;;;;10.50;99.90;;;;;;5028565;28;19964;-49
2022/10/07 00:05:59;;;;;;;;;;;10.50;99.90;;;;;;5032573;28;19925;-48
2022/10/07 00:08:25;;;;;;;;;;;10.50;99.90;;;;;;5014642;28;19968;-49
2022/10/07 00:10:52;;;;;;;;;;;10.50;99.90;;;;;;5027924;28;19991;-48
2022/10/07 00:13:19;;;;;;;;;;;10.50;99.90;;;;;;5031495;28;19921;-51
2022/10/07 00:15:46;;;;;;;;;;;10.50;99.90;;;;;;5030987;28;19925;-49
2022/10/07 00:18:13;;;;;;;;;;;10.50;99.90;;;;;;5032299;28;19921;-49
2022/10/07 00:20:40;;;;;;;;;;;10.50;99.90;;;;;;5026331;28;20385;-51
2022/10/07 00:23:06;;;;;;;;;;;10.50;99.90;;;;;;5032205;28;19929;-48
2022/10/07 00:25:36;;;;;;;;;;;10.50;99.90;;;;;;5031672;28;19925;-49
2022/10/07 00:28:03;;;;;;;;;;;10.50;99.90;;;;;;5032143;28;19928;-49
2022/10/07 00:30:31;;;;;;;;;;;10.50;99.90;;;;;;5007864;28;19925;-50
2022/10/07 00:32:58;;;;;;;;;;;10.50;99.90;;;;;;5031986;28;20354;-49
2022/10/07 00:35:24;;;;;;;;;;;10.40;99.90;;;;;;5013167;28;20410;-48
2022/10/07 00:37:51;;;;;;;;;;;10.50;99.90;;;;;;5010403;28;19929;-50
2022/10/07 00:40:18;;;;;;;;;;;10.50;99.90;;;;;;5024650;28;19967;-50
2022/10/07 00:42:45;;;;;;;;;;;10.40;99.90;;;;;;5032075;28;19921;-49
2022/10/07 00:45:15;;;;;;;;;;;10.40;99.90;;;;;;5013264;28;19960;-49
2022/10/07 00:47:47;;;;;;;;;;;10.20;99.90;;;;;;5011379;28;20512;-49
2022/10/07 00:50:16;;;;;;;;;;;10.00;99.90;;;;;;5011538;28;20392;-49
2022/10/07 00:52:56;;;;;;;;;;;9.80;99.90;;;;;;5013056;28;19971;-52
2022/10/07 00:55:24;;;;;;;;;;;9.70;99.90;;;;;;5013380;28;19975;-51
2022/10/07 00:57:54;;;;;;;;;;;9.70;99.90;;;;;;5012971;28;19921;-49
2022/10/07 01:00:22;;;;;;;;;;;9.70;99.90;;;;;;5031915;28;19947;-48
2022/10/07 01:02:50;;;;;;;;;;;9.90;99.90;;;;;;5009110;28;19921;-49
2022/10/07 01:05:17;;;;;;;;;;;10.10;99.90;;;;;;5028897;28;20441;-48
2022/10/07 01:07:44;;;;;;;;;;;10.20;99.90;;;;;;5030840;28;19968;-50
2022/10/07 01:10:14;;;;;;;;;;;10.30;99.90;;;;;;5027651;28;20019;-50
2022/10/07 01:12:59;;;;;;;;;;;10.30;99.90;;;;;;5031283;28;19921;-49
2022/10/07 01:15:38;;;;;;;;;;;10.20;99.90;;;;;;5030196;28;20334;-50
2022/10/07 01:18:17;;;;;;;;;;;10.20;99.90;;;;;;5031220;28;19967;-49
2022/10/07 01:20:50;;;;;;;;;;;10.20;99.90;;;;;;5023557;28;19928;-49
2022/10/07 01:23:20;;;;;;;;;;;10.20;99.90;;;;;;5013055;28;20406;-49
2022/10/07 01:26:03;;;;;;;;;;;10.10;99.90;;;;;;5013135;28;19976;-50
2022/10/07 01:28:47;;;;;;;;;;;10.10;99.90;;;;;;4953202;28;19953;-50
2022/10/07 01:31:16;;;;;;;;;;;10.10;99.90;;;;;;4980065;28;19949;-48
2022/10/07 01:33:45;;;;;;;;;;;10.20;99.90;;;;;;4985791;28;19973;-49
2022/10/07 01:36:14;;;;;;;;;;;10.20;99.90;;;;;;4985180;28;19926;-50
2022/10/07 01:38:44;;;;;;;;;;;10.20;99.90;;;;;;4970061;28;20148;-49
2022/10/07 01:41:14;;;;;;;;;;;10.30;99.90;;;;;;4983320;28;19922;-49
2022/10/07 01:43:43;;;;;;;;;;;10.20;99.90;;;;;;4986328;28;19933;-49
2022/10/07 01:46:14;;;;;;;;;;;10.20;99.90;;;;;;4986082;28;19926;-46
2022/10/07 01:48:41;;;;;;;;;;;10.10;99.90;;;;;;4985691;28;19969;-49
2022/10/07 01:51:08;;;;;;;;;;;9.90;99.90;;;;;;4966813;28;19929;-48
2022/10/07 01:53:34;;;;;;;;;;;9.70;99.90;;;;;;4986021;28;20054;-48
2022/10/07 01:56:04;;;;;;;;;;;9.60;99.90;;;;;;4983924;28;19922;-48
2022/10/07 01:58:46;;;;;;;;;;;9.50;99.90;;;;;;4973674;28;20376;-50
2022/10/07 02:01:13;;;;;;;;;;;9.50;99.90;;;;;;5010102;28;19943;-50
2022/10/07 02:03:41;;;;;;;;;;;9.60;99.90;;;;;;5014326;28;19921;-49
2022/10/07 02:06:11;;;;;;;;;;;9.60;99.90;;;;;;5013391;28;20325;-48
2022/10/07 02:08:41;;;;;;;;;;;9.60;99.90;;;;;;5012908;28;19921;-49
2022/10/07 02:11:09;;;;;;;;;;;9.70;99.90;;;;;;5028747;28;19921;-48
2022/10/07 02:13:50;;;;;;;;;;;9.70;99.90;;;;;;5013209;28;19993;-49
2022/10/07 02:16:18;;;;;;;;;;;9.80;99.90;;;;;;5012587;28;19924;-48
2022/10/07 02:18:47;;;;;;;;;;;9.80;99.90;;;;;;5018858;28;19921;-48
2022/10/07 02:21:15;;;;;;;;;;;9.90;99.90;;;;;;5062523;22;19924;-50
2022/10/07 02:23:43;;;;;;;;;;;9.90;99.90;;;;;;5070907;28;19927;-55
2022/10/07 02:26:12;;;;;;;;;;;9.90;99.90;;;;;;5088347;28;19928;-51
2022/10/07 02:28:41;;;;;;;;;;;9.90;99.90;;;;;;5073077;28;19920;-52
2022/10/07 02:31:11;;;;;;;;;;;9.80;99.90;;;;;;5069243;28;20024;-54
2022/10/07 02:33:39;;;;;;;;;;;9.50;99.90;;;;;;5068441;28;19920;-55
2022/10/07 02:36:09;;;;;;;;;;;9.30;99.90;;;;;;5059329;28;19921;-54
2022/10/07 02:38:38;;;;;;;;;;;9.30;99.90;;;;;;5073050;28;19920;-54
2022/10/07 02:41:11;;;;;;;;;;;9.30;99.90;;;;;;5053034;28;19921;-52
2022/10/07 02:43:44;;;;;;;;;;;9.30;99.90;;;;;;5049367;28;19921;-54
2022/10/07 02:46:18;;;;;;;;;;;9.20;99.90;;;;;;5056455;28;20038;-53
2022/10/07 02:48:50;;;;;;;;;;;9.20;99.90;;;;;;5055936;28;19959;-53
2022/10/07 02:51:19;;;;;;;;;;;9.20;99.90;;;;;;5074128;28;19971;-52
2022/10/07 02:53:50;;;;;;;;;;;9.20;99.90;;;;;;5055256;28;20468;-54
2022/10/07 02:56:18;;;;;;;;;;;9.30;99.90;;;;;;5074034;28;20402;-52
2022/10/07 02:58:45;;;;;;;;;;;9.30;99.90;;;;;;5073959;28;19924;-55
2022/10/07 03:01:16;;;;;;;;;;;9.30;99.90;;;;;;5053003;28;19921;-51
2022/10/07 03:03:44;;;;;;;;;;;9.30;99.90;;;;;;5073444;28;19924;-54
2022/10/07 03:06:12;;;;;;;;;;;9.30;99.90;;;;;;5055803;28;19920;-52
2022/10/07 03:08:39;;;;;;;;;;;9.30;99.90;;;;;;5073673;28;20001;-54
2022/10/07 03:11:06;;;;;;;;;;;9.30;99.90;;;;;;5054972;28;19920;-52
2022/10/07 03:13:34;;;;;;;;;;;9.30;99.90;;;;;;5055350;28;19964;-52
2022/10/07 03:16:04;;;;;;;;;;;9.40;99.90;;;;;;5055758;28;19970;-55
2022/10/07 03:18:31;;;;;;;;;;;9.30;99.90;;;;;;5050994;28;19924;-55
2022/10/07 03:21:08;;;;;;;;;;;9.30;99.90;;;;;;5054505;28;19927;-53
2022/10/07 03:23:35;;;;;;;;;;;9.30;99.90;;;;;;5054016;28;19928;-55
2022/10/07 03:26:03;;;;;;;;;;;9.20;99.90;;;;;;5073175;28;19920;-53
2022/10/07 03:28:34;;;;;;;;;;;9.20;99.90;;;;;;5070920;28;19928;-54
2022/10/07 03:31:08;;;;;;;;;;;9.10;99.90;;;;;;5054880;28;20003;-54
2022/10/07 03:33:40;;;;;;;;;;;9.10;99.90;;;;;;5068764;28;19950;-53
2022/10/07 03:36:08;;;;;;;;;;;9.10;99.90;;;;;;5054868;28;19955;-52
2022/10/07 03:38:36;;;;;;;;;;;9.00;99.90;;;;;;5048980;28;20448;-53
2022/10/07 03:41:03;;;;;;;;;;;8.90;99.90;;;;;;5072765;28;19928;-53
2022/10/07 03:43:31;;;;;;;;;;;8.90;99.90;;;;;;5054807;28;19928;-55
2022/10/07 03:46:01;;;;;;;;;;;8.90;99.90;;;;;;5054266;28;19956;-52
2022/10/07 03:48:30;;;;;;;;;;;8.80;99.90;;;;;;5054932;28;19920;-53
2022/10/07 03:50:57;;;;;;;;;;;8.80;99.90;;;;;;5081658;28;19999;-54
2022/10/07 03:53:28;;;;;;;;;;;8.80;99.90;;;;;;5054914;28;19939;-54
2022/10/07 03:55:56;;;;;;;;;;;8.80;99.90;;;;;;5063413;28;19932;-51
2022/10/07 03:58:23;;;;;;;;;;;8.80;99.90;;;;;;5058358;28;19963;-52
2022/10/07 04:00:50;;;;;;;;;;;8.70;99.90;;;;;;5055543;28;20015;-53
2022/10/07 04:03:17;;;;;;;;;;;8.80;99.90;;;;;;5034535;28;19924;-53
2022/10/07 04:05:59;;;;;;;;;;;8.70;99.90;;;;;;5045736;28;19924;-53
2022/10/07 04:08:29;;;;;;;;;;;8.70;99.90;;;;;;5053094;28;19924;-53
2022/10/07 04:10:59;;;;;;;;;;;8.80;99.90;;;;;;5054778;28;19931;-54
2022/10/07 04:13:27;;;;;;;;;;;8.90;99.90;;;;;;5045593;28;20391;-52
2022/10/07 04:15:54;;;;;;;;;;;8.90;99.90;;;;;;5071902;28;19924;-55
2022/10/07 04:18:22;;;;;;;;;;;9.00;99.90;;;;;;5054612;28;20019;-54
2022/10/07 04:20:51;;;;;;;;;;;8.90;99.90;;;;;;5054113;28;19921;-54
2022/10/07 04:23:18;;;;;;;;;;;8.80;99.90;;;;;;5063316;28;19974;-52
2022/10/07 04:25:45;;;;;;;;;;;8.70;99.90;;;;;;5051669;28;19931;-53
2022/10/07 04:28:20;;;;;;;;;;;8.60;99.90;;;;;;5046136;28;20359;-53
2022/10/07 04:30:52;;;;;;;;;;;8.60;99.90;;;;;;5049774;28;19920;-53
2022/10/07 04:33:25;;;;;;;;;;;8.60;99.90;;;;;;5042632;28;20016;-52
2022/10/07 04:35:54;;;;;;;;;;;8.50;99.90;;;;;;5053088;28;19924;-53
2022/10/07 04:38:21;;;;;;;;;;;8.50;99.90;;;;;;5051648;28;20015;-55
2022/10/07 04:40:54;;;;;;;;;;;8.50;99.90;;;;;;5054239;28;20392;-52
2022/10/07 04:43:22;;;;;;;;;;;8.60;99.90;;;;;;5071207;28;19924;-51
2022/10/07 04:46:00;;;;;;;;;;;8.60;99.90;;;;;;5049464;28;19992;-52
2022/10/07 04:48:26;;;;;;;;;;;8.60;99.90;;;;;;5061963;28;19928;-53
2022/10/07 04:50:55;;;;;;;;;;;8.60;99.90;;;;;;5070454;28;19943;-52
2022/10/07 04:53:22;;;;;;;;;;;8.60;99.90;;;;;;5058006;28;20010;-51
2022/10/07 04:55:53;;;;;;;;;;;8.50;99.90;;;;;;5047156;28;19920;-51
2022/10/07 04:58:22;;;;;;;;;;;8.50;99.90;;;;;;5051855;28;20003;-54
2022/10/07 05:00:50;;;;;;;;;;;8.50;99.90;;;;;;5044522;28;19999;-51
2022/10/07 05:03:20;;;;;;;;;;;8.50;99.90;;;;;;5041508;28;19920;-54
2022/10/07 05:05:49;;;;;;;;;;;8.50;99.90;;;;;;5044031;28;19920;-51
2022/10/07 05:08:18;;;;;;;;;;;8.50;99.90;;;;;;5043216;28;19937;-51
2022/10/07 05:10:45;;;;;;;;;;;8.50;99.90;;;;;;5043241;28;19927;-53
2022/10/07 05:13:15;;;;;;;;;;;8.50;99.90;;;;;;5067663;28;20347;-53
2022/10/07 05:16:10;;;;;;;;;;;8.50;99.90;;;;;;5046463;28;19967;-52
2022/10/07 05:18:38;;;;;;;;;;;8.50;99.90;;;;;;5064510;28;19928;-53
2022/10/07 05:21:09;;;;;;;;;;;8.50;99.90;;;;;;5038177;28;19928;-52
2022/10/07 05:23:40;;;;;;;;;;;8.50;99.90;;;;;;5047152;28;19926;-51
2022/10/07 05:26:12;;;;;;;;;;;8.40;99.90;;;;;;5053305;28;20359;-51
2022/10/07 05:28:43;;;;;;;;;;;8.40;99.90;;;;;;5052022;28;19944;-52
2022/10/07 05:31:13;;;;;;;;;;;8.20;99.90;;;;;;5050909;28;19944;-51
2022/10/07 05:33:44;;;;;;;;;;;8.20;99.90;;;;;;5068917;28;19944;-53
2022/10/07 05:36:11;;;;;;;;;;;8.30;99.90;;;;;;5052135;28;20372;-51
2022/10/07 05:38:39;;;;;;;;;;;8.30;99.90;;;;;;5070779;28;20443;-52
2022/10/07 05:41:07;;;;;;;;;;;8.40;99.90;;;;;;5053122;28;20435;-52
2022/10/07 05:43:38;;;;;;;;;;;8.40;99.90;;;;;;5066112;28;19986;-51
2022/10/07 05:46:12;;;;;;;;;;;8.50;99.90;;;;;;5050383;28;19920;-56
2022/10/07 05:48:46;;;;;;;;;;;8.50;99.90;;;;;;5046547;28;19921;-54
2022/10/07 05:51:14;;;;;;;;;;;8.60;99.90;;;;;;5043125;28;20016;-52
2022/10/07 05:53:41;;;;;;;;;;;8.60;99.90;;;;;;5069546;28;19921;-53
2022/10/07 05:56:10;;;;;;;;;;;8.70;99.90;;;;;;5052443;28;19920;-51
2022/10/07 05:58:38;;;;;;;;;;;8.70;99.90;;;;;;5053224;28;20385;-51
2022/10/07 06:01:11;;;;;;;;;;;8.80;99.90;;;;;;5065508;28;20020;-53
2022/10/07 06:03:41;;;;;;;;;;;8.80;99.90;;;;;;5052561;28;19920;-51
2022/10/07 06:06:08;;;;;;;;;;;8.80;99.90;;;;;;5051023;28;19928;-53
2022/10/07 06:08:35;;;;;;;;;;;8.90;99.90;;;;;;5066209;28;19921;-52
2022/10/07 06:13:49;;;;;;;;;;;8.90;99.90;;;;;;5036534;28;19921;-53
2022/10/07 06:16:16;;;;;;;;;;;9.00;99.90;;;;;;5047269;28;19920;-51
2022/10/07 06:18:44;;;;;;;;;;;9.00;99.90;;;;;;5074833;28;20011;-52
2022/10/07 06:21:11;;;;;;;;;;;9.00;99.90;;;;;;5051475;28;19920;-52
2022/10/07 06:23:38;;;;;;;;;;;9.10;99.90;;;;;;5053594;28;19920;-52
2022/10/07 06:26:06;;;;;;;;;;;9.10;99.90;;;;;;5071520;28;20300;-53
2022/10/07 06:28:35;;;;;;;;;;;9.10;99.90;;;;;;5063212;28;19921;-52
2022/10/07 06:31:04;;;;;;;;;;;9.10;99.90;;;;;;5065765;28;20028;-52
2022/10/07 06:33:31;;;;;;;;;;;9.10;99.90;;;;;;5054647;28;19939;-52
2022/10/07 06:36:01;;;;;;;;;;;9.10;99.90;;;;;;5074468;28;19962;-51
2022/10/07 06:38:30;;;;;;;;;;;9.10;99.90;;;;;;5056489;28;19928;-54
2022/10/07 06:40:58;;;;;;;;;;;9.10;99.90;;;;;;5056363;28;19993;-52
2022/10/07 06:43:28;;;;;;;;;;;9.10;99.90;;;;;;5052597;28;19924;-52
2022/10/07 06:46:04;;;;;;;;;;;9.20;99.90;;;;;;5052376;28;20434;-51
2022/10/07 06:48:32;;;;;;;;;;;9.30;99.90;;;;;;5054646;28;20015;-52
2022/10/07 06:51:02;;;;;;;;;;;9.40;99.90;;;;;;5048596;28;19958;-52
2022/10/07 06:53:31;;;;;;;;;;;9.40;99.90;;;;;;5053245;28;19964;-52
2022/10/07 06:56:02;;;;;;;;;;;9.50;99.90;;;;;;5065350;28;19960;-54
2022/10/07 06:58:32;;;;;;;;;;;9.50;99.90;;;;;;5055860;28;19920;-51
2022/10/07 07:01:02;;;;;;;;;;;9.50;99.90;;;;;;5069923;28;19970;-53
2022/10/07 07:03:30;;;;;;;;;;;9.60;99.90;;;;;;5055439;28;19920;-51
2022/10/07 07:06:00;;;;;;;;;;;9.70;99.90;;;;;;5055974;28;20343;-52
2022/10/07 07:08:31;;;;;;;;;;;9.70;99.90;;;;;;5056152;28;20400;-51
2022/10/07 07:11:34;;;;;;;;;;;9.70;99.90;;;;;;5061313;28;20365;-51
2022/10/07 07:13:53;;;;;;;;;;;9.70;99.90;;;;;;5067690;28;19920;-54
2022/10/07 07:16:20;;;;;;;;;;;9.70;99.90;;;;;;5073674;28;19928;-53
2022/10/07 07:18:51;;;;;;;;;;;9.80;99.90;;;;;;5049012;28;20328;-53
2022/10/07 07:21:19;;;;;;;;;;;9.80;99.90;;;;;;5054992;28;19921;-54
2022/10/07 07:23:46;;;;;;;;;;;9.90;99.90;;;;;;5053630;28;20312;-51
2022/10/07 07:26:13;;;;;;;;;;;9.90;99.90;;;;;;5055319;28;19928;-52
2022/10/07 07:28:40;;;;;;;;;;;9.90;99.90;;;;;;5054797;28;19974;-53
2022/10/07 07:31:08;;;;;;;;;;;10.00;99.90;;;;;;5055247;28;19924;-52
2022/10/07 07:33:38;;;;;;;;;;;10.00;99.90;;;;;;5053385;28;19946;-51
2022/10/07 07:36:14;;;;;;;;;;;10.10;99.90;;;;;;5073250;28;20331;-53
2022/10/07 07:38:50;;;;;;;;;;;10.10;99.90;;;;;;5055287;28;19947;-52
2022/10/07 07:41:17;;;;;;;;;;;10.20;99.90;;;;;;5070292;28;20014;-51
2022/10/07 07:43:47;;;;;;;;;;;10.20;99.90;;;;;;5061818;28;19921;-54
2022/10/07 07:46:14;;;;;;;;;;;10.30;99.90;;;;;;5053901;28;19924;-51
2022/10/07 07:48:41;;;;;;;;;;;10.40;99.90;;;;;;5071179;28;19974;-53
2022/10/07 07:51:07;;;;;;;;;;;10.40;99.90;;;;;;5071758;28;19950;-52
2022/10/07 07:53:35;;;;;;;;;;;10.50;99.90;;;;;;5065897;28;19962;-52
2022/10/07 07:56:02;;;;;;;;;;;10.70;99.90;;;;;;5071704;28;19927;-51
2022/10/07 07:58:29;;;;;;;;;;;10.90;99.90;;;;;;5071636;28;19920;-52
2022/10/07 08:00:57;;;;;;;;;;;10.90;99.90;;;;;;5066799;28;19930;-52
2022/10/07 08:03:24;;;;;;;;;;;11.00;99.90;;;;;;5054459;28;19966;-53
2022/10/07 08:05:51;;;;;;;;;;;11.20;99.90;;;;;;5050320;28;19921;-52
2022/10/07 08:08:18;;;;;;;;;;;11.50;99.90;;;;;;5052692;28;19921;-52
2022/10/07 08:10:44;;;;;;;;;;;11.80;99.90;;;;;;5054321;28;19921;-52
2022/10/07 08:13:17;;;;;;;;;;;12.00;99.90;;;;;;5053073;28;19951;-52
2022/10/07 08:15:44;;;;;;;;;;;11.90;99.90;;;;;;5052661;28;19920;-52
2022/10/07 08:18:10;;;;;;;;;;;11.90;99.90;;;;;;5072837;28;19920;-53
2022/10/07 08:20:38;;;;;;;;;;;11.90;99.90;;;;;;5088174;22;19943;-48
2022/10/07 08:23:06;;;;;;;;;;;12.10;99.90;;;;;;5052061;28;19921;-49
2022/10/07 08:25:32;;;;;;;;;;;12.30;99.90;;;;;;5042110;28;19924;-50
2022/10/07 08:28:02;;;;;;;;;;;13.40;99.90;;;;;;5054355;28;20372;-51
2022/10/07 08:30:30;;;;;;;;;;;12.50;99.90;;;;;;5070555;28;20335;-49
2022/10/07 08:32:57;;;;;;;;;;;12.40;99.90;;;;;;5064688;28;20351;-49
2022/10/07 08:35:27;;;;;;;;;;;12.50;99.90;;;;;;5065434;28;19924;-52
2022/10/07 08:37:53;;;;;;;;;;;12.80;99.90;;;;;;5092431;28;20388;-49
2022/10/07 08:40:20;;;;;;;;;;;13.00;99.90;;;;;;5092056;28;19923;-50
2022/10/07 08:42:47;;;;;;;;;;;13.00;99.90;;;;;;5074596;28;19924;-50
2022/10/07 08:45:19;;;;;;;;;;;13.10;99.90;;;;;;5075319;28;19960;-50
2022/10/07 08:47:46;;;;;;;;;;;13.30;99.90;;;;;;5091987;28;20365;-49
2022/10/07 08:50:16;;;;;;;;;;;13.30;99.90;;;;;;5092182;28;19926;-50
2022/10/07 08:52:49;;;;;;;;;;;13.40;99.90;;;;;;5085699;28;19926;-49
2022/10/07 08:55:36;;;;;;;;;;;13.60;99.90;;;;;;5063966;28;19967;-50
2022/10/07 08:58:06;;;;;;;;;;;13.70;99.90;;;;;;5091847;28;19959;-50
2022/10/07 09:00:38;;;;;;;;;;;13.80;99.90;;;;;;5092064;28;19970;-49
2022/10/07 09:03:20;;;;;;;;;;;13.80;99.90;;;;;;5091962;28;19981;-49
2022/10/07 09:05:52;;;;;;;;;;;14.00;99.90;;;;;;5065929;28;20033;-49
2022/10/07 09:08:31;;;;;;;;;;;14.10;99.90;;;;;;5091922;28;19967;-49
2022/10/07 09:11:14;;;;;;;;;;;14.20;99.90;;;;;;5076271;28;19955;-47
2022/10/07 09:13:47;;;;;;;;;;;14.30;99.90;;;;;;5091459;28;19927;-50
2022/10/07 09:16:16;;;;;;;;;;;14.40;99.90;;;;;;5072119;28;19966;-49
2022/10/07 09:18:44;;;;;;;;;;;14.40;99.90;;;;;;5083157;28;20483;-50
2022/10/07 09:21:15;;;;;;;;;;;14.40;99.90;;;;;;5086504;28;20296;-49
2022/10/07 09:23:42;;;;;;;;;;;14.50;99.90;;;;;;5091349;28;19955;-52
2022/10/07 09:26:10;;;;;;;;;;;14.60;99.90;;;;;;5066521;28;19973;-49
2022/10/07 09:28:37;;;;;;;;;;;14.70;99.90;;;;;;5091329;28;19958;-49
2022/10/07 09:31:05;;;;;;;;;;;14.80;99.90;;;;;;5090940;28;19924;-50
2022/10/07 09:33:35;;;;;;;;;;;14.90;99.90;;;;;;5091203;28;20319;-51
2022/10/07 09:36:06;;;;;;;;;;;15.00;99.90;;;;;;5066952;28;20361;-49
2022/10/07 09:38:38;;;;;;;;;;;15.10;99.90;;;;;;5075496;28;19951;-49
2022/10/07 09:41:29;;;;;;;;;;;14.90;99.90;;;;;;5091624;28;19997;-49
2022/10/07 09:43:58;;;;;;;;;;;15.30;99.90;;;;;;5077314;28;20004;-50
2022/10/07 09:46:30;;;;;;;;;;;15.30;99.90;;;;;;5076937;28;20384;-50
2022/10/07 09:48:58;;;;;;;;;;;15.40;99.90;;;;;;5095677;28;19927;-49
2022/10/07 09:51:26;;;;;;;;;;;15.50;99.90;;;;;;5095617;28;20459;-50
2022/10/07 09:54:01;;;;;;;;;;;15.50;99.90;;;;;;5072556;28;19978;-49
2022/10/07 09:56:34;;;;;;;;;;;15.50;99.90;;;;;;5069387;28;19924;-49
2022/10/07 09:59:14;;;;;;;;;;;15.50;99.90;;;;;;5095472;28;19920;-49
2022/10/07 10:01:47;;;;;;;;;;;15.60;99.90;;;;;;5094790;28;19985;-50
2022/10/07 10:04:15;;;;;;;;;;;15.60;99.90;;;;;;5081040;28;19978;-48
2022/10/07 10:06:49;;;;;;;;;;;15.80;99.90;;;;;;5081769;28;20444;-49
2022/10/07 10:09:21;;;;;;;;;;;15.80;99.90;;;;;;5094494;28;19956;-49
2022/10/07 10:12:06;;;;;;;;;;;15.90;99.90;;;;;;5095275;28;20014;-49
2022/10/07 10:14:42;;;;;;;;;;;15.90;99.90;;;;;;5086111;28;19965;-48
2022/10/07 10:17:28;;;;;;;;;;;15.90;99.90;;;;;;5094970;28;19973;-50
2022/10/07 10:19:55;;;;;;;;;;;15.90;99.90;;;;;;5095145;28;20384;-49
2022/10/07 10:22:26;;;;;;;;;;;15.90;99.90;;;;;;5080954;28;19964;-49
2022/10/07 10:27:54;;;;;;;;;;;16.00;99.90;;;;;;5079974;28;20022;-49
2022/10/07 10:30:21;;;;;;;;;;;16.10;99.90;;;;;;5077526;28;19958;-50
2022/10/07 10:33:06;;;;;;;;;;;16.10;99.90;;;;;;5094918;28;20347;-48
2022/10/07 10:35:40;;;;;;;;;;;16.20;99.90;;;;;;5094311;28;19923;-50
2022/10/07 10:38:07;;;;;;;;;;;16.20;99.90;;;;;;5070061;28;19948;-50
2022/10/07 10:40:36;;;;;;;;;;;16.30;99.90;;;;;;5079764;28;19923;-49
2022/10/07 10:43:27;;;;;;;;;;;16.40;99.90;;;;;;5094728;28;19955;-50
2022/10/07 10:46:12;;;;;;;;;;;16.50;99.90;;;;;;5065612;28;19990;-50
2022/10/07 10:48:45;;;;;;;;;;;16.50;99.90;;;;;;5075437;28;19938;-49
2022/10/07 10:51:33;;;;;;;;;;;16.60;99.90;;;;;;5069540;28;19966;-49
2022/10/07 10:54:05;;;;;;;;;;;16.60;99.90;;;;;;5041703;28;20377;-50
2022/10/07 10:56:33;;;;;;;;;;;16.80;99.90;;;;;;5070327;28;19974;-49
2022/10/07 10:59:08;;;;;;;;;;;16.80;99.90;;;;;;5073812;28;19968;-49
2022/10/07 11:01:39;;;;;;;;;;;16.90;99.90;;;;;;5069700;28;20292;-49
2022/10/07 11:04:09;;;;;;;;;;;17.00;99.90;;;;;;5093910;28;19920;-49
2022/10/07 11:06:37;;;;;;;;;;;17.10;99.90;;;;;;5094325;28;20014;-49
2022/10/07 11:09:04;;;;;;;;;;;17.20;99.90;;;;;;5093032;28;19986;-52
2022/10/07 11:11:32;;;;;;;;;;;17.20;99.90;;;;;;5065186;28;19989;-49
2022/10/07 11:14:00;;;;;;;;;;;17.10;99.90;;;;;;5043761;28;19925;-50
2022/10/07 11:16:35;;;;;;;;;;;17.00;99.90;;;;;;5062262;28;19946;-49
2022/10/07 11:19:11;;;;;;;;;;;16.90;99.90;;;;;;5073496;28;20309;-49
2022/10/07 11:21:40;;;;;;;;;;;16.90;99.90;;;;;;5054453;28;19982;-51
2022/10/07 11:24:18;;;;;;;;;;;16.80;99.90;;;;;;5056609;28;19920;-52
2022/10/07 11:26:57;;;;;;;;;;;16.90;99.90;;;;;;5054528;28;19947;-50
2022/10/07 11:29:37;;;;;;;;;;;16.80;99.90;;;;;;5055065;28;19921;-50
2022/10/07 11:32:08;;;;;;;;;;;16.80;99.90;;;;;;5060418;28;20380;-49
2022/10/07 11:34:54;;;;;;;;;;;16.80;99.90;;;;;;5053994;28;20440;-50
2022/10/07 11:37:40;;;;;;;;;;;16.80;99.90;;;;;;5055285;28;19956;-50
2022/10/07 11:40:07;;;;;;;;;;;16.80;99.90;;;;;;5054145;28;19946;-50
2022/10/07 11:42:39;;;;;;;;;;;16.90;99.90;;;;;;5054085;28;19952;-50
2022/10/07 11:45:07;;;;;;;;;;;16.90;99.90;;;;;;5053037;28;19928;-50
2022/10/07 11:47:36;;;;;;;;;;;17.00;99.90;;;;;;5053675;28;19920;-48
2022/10/07 11:50:03;;;;;;;;;;;17.00;99.90;;;;;;5066980;28;20015;-50
2022/10/07 11:52:31;;;;;;;;;;;17.10;99.90;;;;;;5073027;28;19964;-49
2022/10/07 11:55:06;;;;;;;;;;;17.10;99.90;;;;;;5048778;28;20403;-49
2022/10/07 11:57:34;;;;;;;;;;;17.10;99.90;;;;;;5076315;28;20457;-50
2022/10/07 12:00:05;;;;;;;;;;;17.10;99.90;;;;;;5092998;28;20026;-49
2022/10/07 12:02:40;;;;;;;;;;;17.10;99.90;;;;;;5093243;28;19955;-49
2022/10/07 12:05:27;;;;;;;;;;;17.10;99.90;;;;;;5088560;28;20434;-49
2022/10/07 12:07:55;;;;;;;;;;;17.00;99.90;;;;;;5067234;28;19920;-48
2022/10/07 12:10:25;;;;;;;;;;;17.00;99.90;;;;;;5065507;28;20455;-48
2022/10/07 12:12:53;;;;;;;;;;;17.00;99.90;;;;;;5061804;28;20015;-49
2022/10/07 12:15:23;;;;;;;;;;;17.00;99.90;;;;;;5059605;28;20344;-49
2022/10/07 12:18:02;;;;;;;;;;;17.00;99.90;;;;;;5054994;28;20447;-48
2022/10/07 12:20:33;;;;;;;;;;;17.00;99.90;;;;;;5066801;28;19924;-48
2022/10/07 12:23:15;;;;;;;;;;;17.00;99.90;;;;;;5071644;28;19927;-49
2022/10/07 12:25:52;;;;;;;;;;;17.00;99.90;;;;;;5061135;28;19924;-52
2022/10/07 12:28:26;;;;;;;;;;;17.00;99.90;;;;;;5087471;28;19924;-48
2022/10/07 12:30:59;;;;;;;;;;;17.10;99.90;;;;;;5090575;28;19919;-49
2022/10/07 12:33:32;;;;;;;;;;;17.20;99.90;;;;;;5090708;28;20398;-49
2022/10/07 12:36:17;;;;;;;;;;;17.30;99.90;;;;;;5078491;28;19925;-48
2022/10/07 12:38:44;;;;;;;;;;;17.10;99.90;;;;;;5084356;28;19920;-48
2022/10/07 12:41:30;;;;;;;;;;;17.10;99.90;;;;;;5090521;28;20010;-49
2022/10/07 12:44:03;;;;;;;;;;;17.10;99.90;;;;;;5074175;28;19924;-49
2022/10/07 12:46:32;;;;;;;;;;;17.20;99.90;;;;;;5092158;28;19946;-49
2022/10/07 12:49:00;;;;;;;;;;;17.20;99.90;;;;;;5092089;28;19920;-49
2022/10/07 12:51:29;;;;;;;;;;;17.20;99.90;;;;;;5085080;28;19924;-48
2022/10/07 12:53:57;;;;;;;;;;;17.20;99.90;;;;;;5081740;28;19951;-49
2022/10/07 12:56:27;;;;;;;;;;;17.20;99.90;;;;;;5072998;28;19921;-48
2022/10/07 13:02:10;;;;;;;;;;;17.30;99.90;;;;;;5080549;28;20019;-50
2022/10/07 13:04:37;;;;;;;;;;;17.30;99.90;;;;;;5091750;28;19920;-48
2022/10/07 13:07:22;;;;;;;;;;;17.40;99.90;;;;;;5082792;28;19968;-48
2022/10/07 13:10:04;;;;;;;;;;;17.40;99.90;;;;;;5063135;28;20431;-51
2022/10/07 13:12:30;;;;;;;;;;;17.50;99.90;;;;;;5091274;28;19974;-49
2022/10/07 13:15:02;;;;;;;;;;;17.40;99.90;;;;;;5082622;28;20389;-50
2022/10/07 13:17:40;;;;;;;;;;;17.40;99.90;;;;;;5091141;28;19920;-49
2022/10/07 13:20:13;;;;;;;;;;;17.40;99.90;;;;;;5091529;28;19920;-50
2022/10/07 13:22:45;;;;;;;;;;;17.50;99.90;;;;;;5091664;28;19942;-48
2022/10/07 13:25:12;;;;;;;;;;;17.50;99.90;;;;;;5083314;28;20334;-49
2022/10/07 13:27:43;;;;;;;;;;;17.50;99.90;;;;;;5091754;28;19959;-49
2022/10/07 13:30:30;;;;;;;;;;;17.50;99.90;;;;;;5086286;28;20165;-49
2022/10/07 13:33:10;;;;;;;;;;;17.40;99.90;;;;;;5067747;28;20450;-51
2022/10/07 13:35:37;;;;;;;;;;;17.40;99.90;;;;;;5055593;28;19921;-49
2022/10/07 13:38:05;;;;;;;;;;;17.50;99.90;;;;;;5066522;28;20414;-49
2022/10/07 13:40:35;;;;;;;;;;;17.50;99.90;;;;;;5061292;28;19959;-50
2022/10/07 13:43:05;;;;;;;;;;;17.40;99.90;;;;;;5083464;28;19959;-49
2022/10/07 13:45:39;;;;;;;;;;;17.50;99.90;;;;;;5062390;28;19932;-50
2022/10/07 13:48:14;;;;;;;;;;;17.50;99.90;;;;;;5080157;28;19959;-50
2022/10/07 13:50:42;;;;;;;;;;;17.50;99.90;;;;;;5091235;28;20006;-48
2022/10/07 13:53:35;;;;;;;;;;;17.40;99.90;;;;;;5091649;28;19920;-49
2022/10/07 13:56:16;;;;;;;;;;;17.30;99.90;;;;;;5072819;28;19928;-50
2022/10/07 13:58:42;;;;;;;;;;;17.30;99.90;;;;;;5078054;28;20026;-51
2022/10/07 14:01:09;;;;;;;;;;;17.30;99.90;;;;;;5091601;28;20034;-49
2022/10/07 14:03:56;;;;;;;;;;;17.20;99.90;;;;;;5076737;28;19927;-52
2022/10/07 14:06:34;;;;;;;;;;;17.20;99.90;;;;;;5062085;28;20019;-50
2022/10/07 14:09:01;;;;;;;;;;;17.20;99.90;;;;;;5061997;28;20392;-51
2022/10/07 14:11:29;;;;;;;;;;;17.10;99.90;;;;;;5061529;28;19929;-48
2022/10/07 14:13:58;;;;;;;;;;;17.10;99.90;;;;;;5059038;28;19928;-50
2022/10/07 14:16:25;;;;;;;;;;;17.00;99.90;;;;;;5062970;28;19925;-48
2022/10/07 14:18:51;;;;;;;;;;;17.00;99.90;;;;;;5061728;28;20381;-49
2022/10/07 14:21:18;;;;;;;;;;;17.00;99.90;;;;;;5059866;28;20007;-51
2022/10/07 14:23:45;;;;;;;;;;;17.00;99.90;;;;;;5070520;22;19946;-52
2022/10/07 14:26:40;;;;;;;;;;;17.00;99.90;;;;;;5040492;28;19921;-56
2022/10/07 14:29:25;;;;;;;;;;;17.00;99.90;;;;;;5037201;28;19924;-54
2022/10/07 14:35:19;;;;;;;;;;;16.90;99.90;;;;;;5049046;28;20019;-54
2022/10/07 14:37:46;;;;;;;;;;;16.80;99.90;;;;;;5035861;28;19963;-55
2022/10/07 14:40:17;;;;;;;;;;;16.80;99.90;;;;;;5048331;28;19959;-53
2022/10/07 14:42:43;;;;;;;;;;;16.70;99.90;;;;;;5034508;28;19925;-52
2022/10/07 14:45:16;;;;;;;;;;;16.70;99.90;;;;;;5033910;28;19921;-54
2022/10/07 14:47:43;;;;;;;;;;;16.70;99.90;;;;;;5022605;28;19925;-52
2022/10/07 14:50:11;;;;;;;;;;;16.60;99.90;;;;;;5028189;28;20373;-51
2022/10/07 14:52:38;;;;;;;;;;;16.50;99.90;;;;;;5017038;28;20019;-54
2022/10/07 14:55:14;;;;;;;;;;;16.50;99.90;;;;;;5014792;28;19921;-53